Time;durP1;ratioP1;P1;durP2;ratioP2;P2;SDS_P1;SDS_P2;PMS_P1;PMS_P2;Temp;Humidity;BMP_temperature;BMP_pressure;BME280_temperature;BME280_humidity;BME280_pressure;Samples;Min_cycle;Max_cycle;Signal;HPM_P1;HPM_P2
2023/06/16 00:01:04;;;;;;;;;;;16.90;99.90;;;;;;5015650;28;20292;-68
2023/06/16 00:03:33;;;;;;;;;;;17.00;99.90;;;;;;5011054;28;19945;-68
2023/06/16 00:06:14;;;;;;;;;;;16.90;99.90;;;;;;5018282;28;19919;-68
2023/06/16 00:08:44;;;;;;;;;;;16.90;99.90;;;;;;5018954;28;19971;-68
2023/06/16 00:11:10;;;;;;;;;;;16.90;99.90;;;;;;5018046;28;19913;-68
2023/06/16 00:13:36;;;;;;;;;;;16.90;99.90;;;;;;5018405;28;19913;-80
2023/06/16 00:16:02;;;;;;;;;;;17.00;99.90;;;;;;5017724;28;20004;-68
2023/06/16 00:18:29;;;;;;;;;;;17.00;99.90;;;;;;5018501;28;19947;-68
2023/06/16 00:20:57;;;;;;;;;;;17.00;99.90;;;;;;5017020;28;20381;-68
2023/06/16 00:23:23;;;;;;;;;;;17.00;99.90;;;;;;5018315;28;19910;-68
2023/06/16 00:25:49;;;;;;;;;;;16.90;99.90;;;;;;5017532;28;19917;-68
2023/06/16 00:28:15;;;;;;;;;;;16.80;99.90;;;;;;5018425;28;19909;-67
2023/06/16 00:30:41;;;;;;;;;;;16.70;99.90;;;;;;5018062;28;20225;-68
2023/06/16 00:33:06;;;;;;;;;;;16.60;99.90;;;;;;5017685;28;19909;-68
2023/06/16 00:35:32;;;;;;;;;;;16.60;99.90;;;;;;5017798;28;20000;-68
2023/06/16 00:37:58;;;;;;;;;;;16.60;99.90;;;;;;5017810;28;19905;-67
2023/06/16 00:40:23;;;;;;;;;;;16.60;99.90;;;;;;5018505;28;20000;-68
2023/06/16 00:42:49;;;;;;;;;;;16.60;99.90;;;;;;5017387;28;19944;-68
2023/06/16 00:45:14;;;;;;;;;;;16.60;99.90;;;;;;5007071;28;19967;-68
2023/06/16 00:47:40;;;;;;;;;;;16.60;99.90;;;;;;5020619;28;19917;-67
2023/06/16 00:50:07;;;;;;;;;;;16.40;99.90;;;;;;5018476;28;19960;-68
2023/06/16 00:52:36;;;;;;;;;;;16.30;99.90;;;;;;5034972;28;19917;-68
2023/06/16 00:55:02;;;;;;;;;;;16.30;99.90;;;;;;5017201;28;19916;-68
2023/06/16 00:57:28;;;;;;;;;;;16.10;99.90;;;;;;5016964;28;19917;-68
2023/06/16 00:59:54;;;;;;;;;;;16.10;99.90;;;;;;5024000;28;20320;-68
2023/06/16 01:02:20;;;;;;;;;;;16.10;99.90;;;;;;5029110;28;20007;-79
2023/06/16 01:04:47;;;;;;;;;;;16.20;99.90;;;;;;5023676;28;19913;-68
2023/06/16 01:07:20;;;;;;;;;;;16.20;99.90;;;;;;5016114;28;19920;-68
2023/06/16 01:09:57;;;;;;;;;;;16.10;99.90;;;;;;5017832;28;19996;-68
2023/06/16 01:12:30;;;;;;;;;;;16.20;99.90;;;;;;5024415;28;19944;-68
2023/06/16 01:14:57;;;;;;;;;;;16.10;99.90;;;;;;5015486;28;20323;-68
2023/06/16 01:17:24;;;;;;;;;;;16.10;99.90;;;;;;5030245;28;19937;-80
2023/06/16 01:19:53;;;;;;;;;;;16.10;99.90;;;;;;5018669;28;19910;-68
2023/06/16 01:22:29;;;;;;;;;;;16.00;99.90;;;;;;5022397;28;19947;-67
2023/06/16 01:24:57;;;;;;;;;;;15.90;99.90;;;;;;5014978;28;19920;-68
2023/06/16 01:27:23;;;;;;;;;;;15.80;99.90;;;;;;5015953;28;21726;-68
2023/06/16 01:29:51;;;;;;;;;;;15.80;99.90;;;;;;5020426;28;19909;-68
2023/06/16 01:32:18;;;;;;;;;;;15.70;99.90;;;;;;5016501;28;19928;-70
2023/06/16 01:34:44;;;;;;;;;;;15.70;99.90;;;;;;5016864;28;19909;-67
2023/06/16 01:37:10;;;;;;;;;;;15.70;99.90;;;;;;5023390;28;19914;-68
2023/06/16 01:39:36;;;;;;;;;;;15.70;99.90;;;;;;5039159;28;20226;-68
2023/06/16 01:42:02;;;;;;;;;;;15.80;99.90;;;;;;5018315;28;19972;-68
2023/06/16 01:44:28;;;;;;;;;;;15.90;99.90;;;;;;5018896;28;19916;-67
2023/06/16 01:46:54;;;;;;;;;;;15.90;99.90;;;;;;5018015;28;20004;-68
2023/06/16 01:49:20;;;;;;;;;;;15.80;99.90;;;;;;5020348;28;19949;-74
2023/06/16 01:51:46;;;;;;;;;;;15.80;99.90;;;;;;5022906;28;19913;-67
2023/06/16 01:54:11;;;;;;;;;;;15.70;99.90;;;;;;5018084;28;20232;-68
2023/06/16 01:56:37;;;;;;;;;;;15.80;99.90;;;;;;5017982;28;19964;-67
2023/06/16 01:59:03;;;;;;;;;;;15.90;99.90;;;;;;5016453;28;19909;-79
2023/06/16 02:01:29;;;;;;;;;;;16.00;99.90;;;;;;5015521;28;20299;-67
2023/06/16 02:04:07;;;;;;;;;;;16.10;99.90;;;;;;5014283;28;19913;-67
2023/06/16 02:06:56;;;;;;;;;;;16.10;99.90;;;;;;5019313;28;19909;-68
2023/06/16 02:09:22;;;;;;;;;;;16.10;99.90;;;;;;5015873;28;19959;-80
2023/06/16 02:11:51;;;;;;;;;;;16.10;99.90;;;;;;5015134;28;19963;-68
2023/06/16 02:14:18;;;;;;;;;;;16.10;99.90;;;;;;5015888;28;19920;-68
2023/06/16 02:16:44;;;;;;;;;;;16.10;99.90;;;;;;5014995;28;19909;-67
2023/06/16 02:19:11;;;;;;;;;;;16.20;99.90;;;;;;5016202;28;19913;-68
2023/06/16 02:21:37;;;;;;;;;;;16.10;99.90;;;;;;5015867;28;19985;-68
2023/06/16 02:24:04;;;;;;;;;;;16.10;99.90;;;;;;5015970;28;20048;-68
2023/06/16 02:26:31;;;;;;;;;;;16.10;99.90;;;;;;5015639;28;19913;-68
2023/06/16 02:28:57;;;;;;;;;;;16.10;99.90;;;;;;5015136;28;19913;-68
2023/06/16 02:31:23;;;;;;;;;;;16.10;99.90;;;;;;5016072;28;19909;-81
2023/06/16 02:33:51;;;;;;;;;;;16.00;99.90;;;;;;5015566;28;19917;-68
2023/06/16 02:36:17;;;;;;;;;;;16.10;99.90;;;;;;5020480;28;19933;-67
2023/06/16 02:38:43;;;;;;;;;;;16.20;99.90;;;;;;5013841;28;19910;-68
2023/06/16 02:41:09;;;;;;;;;;;16.30;99.90;;;;;;5015495;28;19957;-67
2023/06/16 02:43:34;;;;;;;;;;;16.30;99.90;;;;;;5015662;28;19909;-68
2023/06/16 02:46:01;;;;;;;;;;;16.30;99.90;;;;;;5012743;28;19965;-80
2023/06/16 02:48:27;;;;;;;;;;;16.10;99.90;;;;;;5014771;28;19914;-68
2023/06/16 02:50:53;;;;;;;;;;;15.90;99.90;;;;;;5014626;28;19936;-68
2023/06/16 02:53:19;;;;;;;;;;;15.70;99.90;;;;;;5014509;28;19960;-68
2023/06/16 02:55:46;;;;;;;;;;;15.60;99.90;;;;;;5012478;28;19920;-68
2023/06/16 02:58:12;;;;;;;;;;;15.50;99.90;;;;;;5014819;28;19917;-68
2023/06/16 03:00:38;;;;;;;;;;;15.40;99.90;;;;;;5014858;28;20011;-68
2023/06/16 03:03:04;;;;;;;;;;;15.40;99.90;;;;;;5030113;28;19905;-68
2023/06/16 03:05:31;;;;;;;;;;;15.40;99.90;;;;;;5015369;28;19945;-68
2023/06/16 03:07:56;;;;;;;;;;;15.50;99.90;;;;;;5014822;28;20256;-67
2023/06/16 03:10:22;;;;;;;;;;;15.40;99.90;;;;;;5014876;28;19909;-68
2023/06/16 03:12:48;;;;;;;;;;;15.40;99.90;;;;;;5015538;28;19917;-68
2023/06/16 03:15:14;;;;;;;;;;;15.30;99.90;;;;;;5015021;28;19909;-67
2023/06/16 03:17:40;;;;;;;;;;;15.20;99.90;;;;;;5014619;28;19913;-68
2023/06/16 03:20:05;;;;;;;;;;;15.10;99.90;;;;;;5014608;28;19945;-68
2023/06/16 03:22:31;;;;;;;;;;;15.10;99.90;;;;;;5015444;28;19964;-67
2023/06/16 03:25:02;;;;;;;;;;;15.10;99.90;;;;;;5014299;28;19916;-67
2023/06/16 03:27:31;;;;;;;;;;;15.00;99.90;;;;;;5011251;28;19913;-67
2023/06/16 03:29:57;;;;;;;;;;;14.90;99.90;;;;;;5019337;28;19913;-74
2023/06/16 03:32:24;;;;;;;;;;;14.80;99.90;;;;;;5018202;28;19917;-81
2023/06/16 03:34:49;;;;;;;;;;;14.80;99.90;;;;;;5019395;28;19909;-67
2023/06/16 03:37:18;;;;;;;;;;;14.80;99.90;;;;;;5017836;28;19932;-81
2023/06/16 03:39:43;;;;;;;;;;;14.90;99.90;;;;;;5019454;28;19909;-67
2023/06/16 03:42:10;;;;;;;;;;;15.00;99.90;;;;;;5018392;28;20216;-67
2023/06/16 03:44:36;;;;;;;;;;;15.10;99.90;;;;;;5017561;28;19960;-67
2023/06/16 03:47:01;;;;;;;;;;;15.30;99.90;;;;;;5015847;28;19914;-68
2023/06/16 03:49:27;;;;;;;;;;;15.40;99.90;;;;;;5016526;28;19913;-67
2023/06/16 03:51:53;;;;;;;;;;;15.60;99.90;;;;;;5018295;28;19917;-67
2023/06/16 03:54:19;;;;;;;;;;;15.70;99.90;;;;;;5018700;28;19906;-68
2023/06/16 03:56:45;;;;;;;;;;;15.80;99.90;;;;;;5018791;28;19961;-67
2023/06/16 03:59:11;;;;;;;;;;;15.90;99.90;;;;;;5018010;28;20212;-68
2023/06/16 04:01:37;;;;;;;;;;;16.00;99.90;;;;;;5017806;28;19913;-67
2023/06/16 04:04:05;;;;;;;;;;;16.10;99.90;;;;;;5021049;28;19921;-67
2023/06/16 04:06:34;;;;;;;;;;;16.10;99.90;;;;;;5022526;28;19917;-67
2023/06/16 04:09:01;;;;;;;;;;;16.10;99.90;;;;;;5017219;28;20012;-67
2023/06/16 04:11:27;;;;;;;;;;;16.00;99.90;;;;;;5018916;28;20249;-67
2023/06/16 04:13:53;;;;;;;;;;;15.80;99.90;;;;;;5017922;28;20277;-67
2023/06/16 04:16:18;;;;;;;;;;;15.60;99.90;;;;;;5018467;28;19967;-68
2023/06/16 04:18:48;;;;;;;;;;;15.50;99.90;;;;;;5030651;28;20289;-67
2023/06/16 04:21:14;;;;;;;;;;;15.50;99.90;;;;;;5033512;28;19909;-68
2023/06/16 04:23:40;;;;;;;;;;;15.40;99.90;;;;;;5017868;28;20008;-67
2023/06/16 04:26:07;;;;;;;;;;;15.30;99.90;;;;;;5017751;28;20003;-67
2023/06/16 04:28:33;;;;;;;;;;;15.30;99.90;;;;;;5017794;28;19913;-67
2023/06/16 04:31:00;;;;;;;;;;;15.30;99.90;;;;;;5017835;28;19905;-67
2023/06/16 04:33:26;;;;;;;;;;;15.40;99.90;;;;;;5017619;28;19910;-67
2023/06/16 04:35:52;;;;;;;;;;;15.40;99.90;;;;;;5018171;28;19941;-68
2023/06/16 04:38:19;;;;;;;;;;;15.40;99.90;;;;;;5020655;28;19949;-68
2023/06/16 04:40:45;;;;;;;;;;;15.50;99.90;;;;;;5017427;28;19921;-68
2023/06/16 04:43:11;;;;;;;;;;;15.50;99.90;;;;;;5017110;28;19909;-67
2023/06/16 04:45:36;;;;;;;;;;;15.60;99.90;;;;;;5017580;28;20227;-67
2023/06/16 04:48:02;;;;;;;;;;;15.70;99.90;;;;;;5017744;28;19905;-68
2023/06/16 04:50:27;;;;;;;;;;;15.80;99.90;;;;;;5016673;28;20296;-68
2023/06/16 04:52:54;;;;;;;;;;;15.90;99.90;;;;;;5017148;28;19913;-67
2023/06/16 04:55:20;;;;;;;;;;;16.00;99.90;;;;;;5016570;28;19916;-68
2023/06/16 04:57:46;;;;;;;;;;;16.10;99.90;;;;;;5017680;28;19944;-67
2023/06/16 05:00:12;;;;;;;;;;;16.10;99.90;;;;;;5032534;28;19909;-81
2023/06/16 05:02:38;;;;;;;;;;;16.20;99.90;;;;;;5017145;28;19913;-67
2023/06/16 05:05:04;;;;;;;;;;;16.20;99.90;;;;;;5015751;28;19909;-68
2023/06/16 05:07:31;;;;;;;;;;;16.30;99.90;;;;;;5017135;28;20220;-68
2023/06/16 05:09:57;;;;;;;;;;;16.30;99.90;;;;;;5016559;28;19919;-68
2023/06/16 05:12:24;;;;;;;;;;;16.40;99.90;;;;;;5017048;28;20034;-67
2023/06/16 05:14:50;;;;;;;;;;;16.50;99.90;;;;;;5016740;28;19913;-67
2023/06/16 05:17:15;;;;;;;;;;;16.60;99.90;;;;;;5017441;28;19932;-67
2023/06/16 05:19:41;;;;;;;;;;;16.80;99.90;;;;;;5017827;28;19905;-80
2023/06/16 05:22:06;;;;;;;;;;;16.90;99.90;;;;;;5016601;28;19920;-68
2023/06/16 05:24:32;;;;;;;;;;;16.90;99.90;;;;;;5016545;28;19916;-67
2023/06/16 05:26:58;;;;;;;;;;;17.00;99.90;;;;;;5016870;28;19912;-68
2023/06/16 05:29:23;;;;;;;;;;;17.10;99.90;;;;;;5016821;28;19917;-82
2023/06/16 05:31:49;;;;;;;;;;;17.20;99.90;;;;;;5016193;28;19924;-68
2023/06/16 05:34:14;;;;;;;;;;;17.20;99.90;;;;;;5017031;28;19913;-67
2023/06/16 05:36:40;;;;;;;;;;;17.30;99.90;;;;;;5015958;28;20212;-68
2023/06/16 05:39:06;;;;;;;;;;;17.40;99.90;;;;;;5016151;28;20410;-67
2023/06/16 05:41:32;;;;;;;;;;;17.40;99.90;;;;;;5016248;28;19909;-67
2023/06/16 05:43:57;;;;;;;;;;;17.50;99.90;;;;;;5014710;28;19916;-68
2023/06/16 05:46:23;;;;;;;;;;;17.60;99.90;;;;;;5016752;28;20228;-68
2023/06/16 05:48:49;;;;;;;;;;;17.70;99.90;;;;;;5016009;28;20216;-68
2023/06/16 05:51:15;;;;;;;;;;;17.80;99.90;;;;;;5015645;28;19968;-67
2023/06/16 05:53:41;;;;;;;;;;;17.90;99.90;;;;;;5015897;28;19913;-67
2023/06/16 05:56:06;;;;;;;;;;;18.00;99.90;;;;;;5016124;28;19909;-79
2023/06/16 05:58:35;;;;;;;;;;;18.20;99.90;;;;;;5015054;28;19916;-68
2023/06/16 06:01:01;;;;;;;;;;;18.30;99.90;;;;;;5016565;28;19912;-68
2023/06/16 06:03:27;;;;;;;;;;;18.50;99.90;;;;;;5019812;28;19956;-75
2023/06/16 06:05:52;;;;;;;;;;;18.50;99.90;;;;;;5021010;28;19948;-67
2023/06/16 06:08:22;;;;;;;;;;;18.60;99.90;;;;;;5021940;28;19913;-67
2023/06/16 06:10:48;;;;;;;;;;;18.70;99.90;;;;;;5037043;28;19905;-67
2023/06/16 06:13:14;;;;;;;;;;;18.70;99.90;;;;;;5019401;28;19959;-68
2023/06/16 06:15:42;;;;;;;;;;;18.70;99.90;;;;;;5024339;28;19920;-67
2023/06/16 06:18:07;;;;;;;;;;;18.80;99.90;;;;;;5016823;28;20285;-68
2023/06/16 06:20:33;;;;;;;;;;;18.80;99.90;;;;;;5036174;28;20032;-68
2023/06/16 06:22:59;;;;;;;;;;;18.80;99.90;;;;;;5019892;28;20319;-66
2023/06/16 06:25:24;;;;;;;;;;;18.90;99.90;;;;;;5022651;28;19913;-67
2023/06/16 06:27:50;;;;;;;;;;;19.00;99.90;;;;;;5019469;28;19939;-67
2023/06/16 06:30:16;;;;;;;;;;;19.00;99.90;;;;;;5018518;28;19942;-68
2023/06/16 06:32:42;;;;;;;;;;;19.10;99.90;;;;;;5017846;28;19916;-68
2023/06/16 06:35:07;;;;;;;;;;;19.10;99.90;;;;;;5038737;28;19905;-67
2023/06/16 06:37:33;;;;;;;;;;;19.10;99.90;;;;;;5020651;28;19909;-67
2023/06/16 06:39:59;;;;;;;;;;;19.10;99.90;;;;;;5027093;28;20475;-68
2023/06/16 06:42:26;;;;;;;;;;;19.30;99.90;;;;;;5018344;28;20014;-67
2023/06/16 06:44:53;;;;;;;;;;;19.30;99.90;;;;;;5021580;28;19905;-67
2023/06/16 06:47:21;;;;;;;;;;;19.40;99.90;;;;;;5019559;28;19909;-67
2023/06/16 06:49:47;;;;;;;;;;;19.40;99.90;;;;;;5023039;28;19959;-68
2023/06/16 06:52:12;;;;;;;;;;;19.50;99.90;;;;;;5026771;28;19917;-68
2023/06/16 06:54:38;;;;;;;;;;;19.50;99.90;;;;;;5022061;28;19913;-68
2023/06/16 06:57:04;;;;;;;;;;;19.60;99.90;;;;;;5025427;28;19917;-68
2023/06/16 06:59:29;;;;;;;;;;;19.60;99.90;;;;;;5019051;28;20288;-68
2023/06/16 07:01:55;;;;;;;;;;;19.50;99.90;;;;;;5024697;28;19909;-68
2023/06/16 07:04:21;;;;;;;;;;;19.60;99.90;;;;;;5026988;28;20002;-68
2023/06/16 07:06:47;;;;;;;;;;;19.70;99.90;;;;;;5023009;28;19913;-68
2023/06/16 07:09:12;;;;;;;;;;;19.80;99.90;;;;;;5019379;28;20043;-68
2023/06/16 07:11:38;;;;;;;;;;;19.90;99.90;;;;;;5034787;28;19913;-68
2023/06/16 07:14:04;;;;;;;;;;;20.00;99.90;;;;;;5018587;28;19910;-79
2023/06/16 07:16:30;;;;;;;;;;;20.10;99.90;;;;;;5015095;28;19909;-68
2023/06/16 07:18:56;;;;;;;;;;;20.20;99.90;;;;;;5022936;28;20182;-68
2023/06/16 07:21:21;;;;;;;;;;;20.20;99.90;;;;;;5029089;28;20210;-68
2023/06/16 07:23:47;;;;;;;;;;;20.30;99.90;;;;;;5019927;28;20004;-68
2023/06/16 07:26:12;;;;;;;;;;;20.30;99.90;;;;;;5022834;28;19919;-68
2023/06/16 07:28:39;;;;;;;;;;;20.40;99.90;;;;;;5020796;28;19909;-68
2023/06/16 07:31:05;;;;;;;;;;;20.30;99.90;;;;;;5031486;28;19909;-68
2023/06/16 07:33:31;;;;;;;;;;;20.30;99.90;;;;;;5015824;28;20005;-68
2023/06/16 07:35:56;;;;;;;;;;;20.30;99.90;;;;;;5016387;28;19917;-68
2023/06/16 07:38:22;;;;;;;;;;;20.30;99.90;;;;;;5021331;28;20280;-81
2023/06/16 07:40:48;;;;;;;;;;;20.30;99.90;;;;;;5028742;28;20047;-69
2023/06/16 07:43:13;;;;;;;;;;;20.40;99.90;;;;;;5017586;28;19987;-82
2023/06/16 07:45:39;;;;;;;;;;;20.40;99.90;;;;;;5023241;28;20060;-67
2023/06/16 07:48:07;;;;;;;;;;;20.50;99.90;;;;;;5014543;28;20194;-68
2023/06/16 07:50:34;;;;;;;;;;;20.60;99.90;;;;;;5030447;28;19988;-68
2023/06/16 07:52:59;;;;;;;;;;;20.60;99.90;;;;;;5020947;28;19999;-68
2023/06/16 07:55:25;;;;;;;;;;;20.80;99.90;;;;;;5015192;28;20007;-68
2023/06/16 07:57:51;;;;;;;;;;;20.80;99.90;;;;;;5020980;28;20265;-67
2023/06/16 08:00:17;;;;;;;;;;;20.90;99.90;;;;;;5015456;28;19916;-68
2023/06/16 08:02:43;;;;;;;;;;;21.00;99.90;;;;;;5015128;28;20004;-68
2023/06/16 08:05:10;;;;;;;;;;;21.00;99.90;;;;;;5021833;28;20027;-67
2023/06/16 08:07:36;;;;;;;;;;;21.10;99.90;;;;;;5013952;28;20304;-68
2023/06/16 08:10:03;;;;;;;;;;;21.10;99.90;;;;;;5014705;28;19968;-68
2023/06/16 08:12:28;;;;;;;;;;;21.20;99.90;;;;;;5014890;28;20281;-69
2023/06/16 08:14:54;;;;;;;;;;;21.30;99.90;;;;;;5016743;28;20004;-78
2023/06/16 08:17:20;;;;;;;;;;;21.40;99.90;;;;;;5017876;28;19956;-69
2023/06/16 08:19:45;;;;;;;;;;;21.50;99.90;;;;;;5017417;28;20351;-68
2023/06/16 08:22:11;;;;;;;;;;;21.60;99.90;;;;;;5017736;28;19948;-68
2023/06/16 08:24:37;;;;;;;;;;;21.80;99.90;;;;;;5017663;28;19941;-68
2023/06/16 08:27:04;;;;;;;;;;;21.80;99.90;;;;;;5017554;28;20359;-68
2023/06/16 08:29:30;;;;;;;;;;;21.80;99.90;;;;;;5017141;28;20327;-68
2023/06/16 08:31:56;;;;;;;;;;;22.00;99.30;;;;;;5017412;28;19913;-68
2023/06/16 08:34:21;;;;;;;;;;;22.10;99.90;;;;;;5018020;28;19963;-68
2023/06/16 08:36:47;;;;;;;;;;;22.00;99.90;;;;;;5017960;28;19913;-75
2023/06/16 08:39:13;;;;;;;;;;;22.20;99.80;;;;;;5016965;28;19960;-81
2023/06/16 08:41:38;;;;;;;;;;;22.30;99.80;;;;;;5018121;28;19955;-68
2023/06/16 08:44:05;;;;;;;;;;;22.30;98.40;;;;;;5017719;28;20250;-78
2023/06/16 08:46:31;;;;;;;;;;;22.50;97.40;;;;;;5017399;28;20324;-68
2023/06/16 08:48:57;;;;;;;;;;;22.60;98.00;;;;;;5017753;28;19968;-68
2023/06/16 08:51:24;;;;;;;;;;;22.50;98.90;;;;;;5017065;28;19967;-67
2023/06/16 08:53:54;;;;;;;;;;;22.70;97.60;;;;;;5017296;28;19909;-69
2023/06/16 08:56:20;;;;;;;;;;;22.60;96.70;;;;;;5027298;28;19921;-68
2023/06/16 08:58:47;;;;;;;;;;;22.70;96.10;;;;;;5017487;28;19932;-80
2023/06/16 09:01:14;;;;;;;;;;;22.80;97.90;;;;;;5016424;28;20355;-68
2023/06/16 09:03:41;;;;;;;;;;;22.90;97.70;;;;;;5017475;28;20227;-69
2023/06/16 09:06:10;;;;;;;;;;;22.80;94.90;;;;;;5018209;28;19913;-68
2023/06/16 09:08:36;;;;;;;;;;;22.70;94.90;;;;;;5032060;28;19909;-82
2023/06/16 09:11:06;;;;;;;;;;;22.80;96.10;;;;;;5016397;28;19912;-68
2023/06/16 09:13:32;;;;;;;;;;;23.00;95.60;;;;;;5017066;28;19910;-68
2023/06/16 09:15:59;;;;;;;;;;;23.00;93.60;;;;;;5017289;28;19932;-68
2023/06/16 09:18:36;;;;;;;;;;;23.00;96.10;;;;;;5016541;28;19915;-84
2023/06/16 09:21:05;;;;;;;;;;;22.90;95.50;;;;;;5016733;28;19915;-68
2023/06/16 09:23:31;;;;;;;;;;;23.00;95.80;;;;;;5014671;28;19957;-69
2023/06/16 09:25:57;;;;;;;;;;;23.10;94.80;;;;;;5031761;28;20000;-69
2023/06/16 09:28:35;;;;;;;;;;;23.20;96.80;;;;;;5016106;28;20001;-68
2023/06/16 09:31:02;;;;;;;;;;;23.10;94.60;;;;;;5003389;28;20189;-68
2023/06/16 09:33:28;;;;;;;;;;;23.30;95.10;;;;;;5015965;28;20020;-67
2023/06/16 09:35:54;;;;;;;;;;;23.40;94.80;;;;;;5015931;28;19909;-83
2023/06/16 09:38:20;;;;;;;;;;;23.50;95.50;;;;;;5015982;28;19916;-68
2023/06/16 09:40:46;;;;;;;;;;;23.50;93.90;;;;;;5015068;28;19909;-69
2023/06/16 09:43:14;;;;;;;;;;;23.40;94.10;;;;;;5015436;28;19963;-85
2023/06/16 09:45:40;;;;;;;;;;;23.40;96.10;;;;;;5015664;28;20305;-68
2023/06/16 09:48:08;;;;;;;;;;;23.50;96.70;;;;;;5016574;28;19905;-68
2023/06/16 09:50:36;;;;;;;;;;;23.50;94.10;;;;;;5015736;28;20021;-69
2023/06/16 09:53:06;;;;;;;;;;;23.60;95.80;;;;;;5014545;28;19917;-68
2023/06/16 09:55:33;;;;;;;;;;;23.70;95.50;;;;;;5016112;28;20319;-69
2023/06/16 09:57:59;;;;;;;;;;;23.60;96.90;;;;;;5015261;28;19918;-68
2023/06/16 10:00:25;;;;;;;;;;;23.60;96.10;;;;;;5030812;28;19913;-68
2023/06/16 10:02:51;;;;;;;;;;;23.70;96.30;;;;;;5015343;28;19909;-68
2023/06/16 10:05:18;;;;;;;;;;;23.40;96.70;;;;;;5015077;28;20346;-75
2023/06/16 10:07:48;;;;;;;;;;;23.50;98.20;;;;;;5031043;28;19913;-68
2023/06/16 10:10:14;;;;;;;;;;;23.60;97.50;;;;;;5015198;28;19963;-68
2023/06/16 10:12:44;;;;;;;;;;;23.80;96.90;;;;;;5014969;28;19917;-69
2023/06/16 10:15:11;;;;;;;;;;;23.80;97.70;;;;;;5014941;28;19921;-66
2023/06/16 10:17:37;;;;;;;;;;;23.90;96.10;;;;;;5015508;28;19910;-79
2023/06/16 10:20:05;;;;;;;;;;;23.80;95.70;;;;;;5015102;28;19909;-68
2023/06/16 10:22:31;;;;;;;;;;;23.80;96.30;;;;;;5014598;28;19909;-68
2023/06/16 10:25:00;;;;;;;;;;;23.70;96.70;;;;;;5014396;28;19918;-68
2023/06/16 10:27:26;;;;;;;;;;;23.60;94.90;;;;;;5012518;28;19917;-83
2023/06/16 10:29:53;;;;;;;;;;;23.70;95.90;;;;;;5015026;28;19924;-68
2023/06/16 10:32:19;;;;;;;;;;;23.70;95.00;;;;;;5024819;28;19924;-68
2023/06/16 10:34:49;;;;;;;;;;;23.70;95.20;;;;;;5016469;28;19909;-68
2023/06/16 10:37:15;;;;;;;;;;;23.70;95.20;;;;;;5014464;28;19913;-68
2023/06/16 10:39:45;;;;;;;;;;;23.60;94.10;;;;;;5013625;28;19910;-80
2023/06/16 10:42:14;;;;;;;;;;;23.80;95.70;;;;;;5015163;28;19916;-67
2023/06/16 10:44:40;;;;;;;;;;;23.80;94.80;;;;;;5014198;28;19951;-68
2023/06/16 10:47:12;;;;;;;;;;;23.90;93.40;;;;;;5014801;28;19916;-68
2023/06/16 10:50:00;;;;;;;;;;;23.90;94.40;;;;;;5030633;28;19913;-70
2023/06/16 10:52:28;;;;;;;;;;;23.80;95.00;;;;;;5015551;28;19919;-68
2023/06/16 10:54:57;;;;;;;;;;;24.10;95.10;;;;;;5014702;28;20035;-68
2023/06/16 10:57:25;;;;;;;;;;;24.10;92.80;;;;;;5025641;28;19917;-67
2023/06/16 10:59:56;;;;;;;;;;;24.20;95.40;;;;;;5014794;28;20219;-67
2023/06/16 11:02:23;;;;;;;;;;;24.30;95.00;;;;;;5015369;28;19936;-69
2023/06/16 11:05:08;;;;;;;;;;;24.20;94.60;;;;;;5014503;28;19916;-67
2023/06/16 11:07:38;;;;;;;;;;;24.20;94.70;;;;;;5015201;28;19920;-66
2023/06/16 11:10:03;;;;;;;;;;;24.40;94.90;;;;;;5030449;28;19988;-68
2023/06/16 11:12:29;;;;;;;;;;;24.50;95.30;;;;;;5015007;28;20015;-67
2023/06/16 11:14:55;;;;;;;;;;;24.50;94.60;;;;;;5014735;28;19913;-66
2023/06/16 11:17:22;;;;;;;;;;;24.40;94.00;;;;;;5015414;28;19906;-66
2023/06/16 11:19:57;;;;;;;;;;;24.40;93.50;;;;;;5015759;28;19913;-67
2023/06/16 11:22:30;;;;;;;;;;;24.30;92.70;;;;;;5000140;28;19913;-66
2023/06/16 11:24:55;;;;;;;;;;;24.40;93.60;;;;;;5012785;28;19915;-66
2023/06/16 11:27:21;;;;;;;;;;;24.40;93.70;;;;;;5014384;28;20275;-66
2023/06/16 11:29:47;;;;;;;;;;;24.40;93.00;;;;;;5014106;28;19917;-67
2023/06/16 11:32:16;;;;;;;;;;;24.50;93.60;;;;;;5014511;28;19910;-66
2023/06/16 11:34:41;;;;;;;;;;;24.50;92.70;;;;;;5028947;28;19914;-66
2023/06/16 11:37:08;;;;;;;;;;;24.60;93.50;;;;;;5014345;28;19937;-67
2023/06/16 11:39:43;;;;;;;;;;;24.50;92.70;;;;;;5010898;28;19952;-68
2023/06/16 11:42:15;;;;;;;;;;;24.50;93.20;;;;;;5014632;28;19910;-67
2023/06/16 11:44:41;;;;;;;;;;;24.60;93.40;;;;;;5012231;28;20236;-66
2023/06/16 11:47:07;;;;;;;;;;;24.70;93.80;;;;;;5015497;28;19990;-68
2023/06/16 11:49:36;;;;;;;;;;;24.70;93.00;;;;;;5016842;28;19913;-67
2023/06/16 11:52:05;;;;;;;;;;;24.80;92.90;;;;;;5017660;28;19935;-68
2023/06/16 11:54:31;;;;;;;;;;;24.70;93.30;;;;;;5018085;28;20254;-66
2023/06/16 11:56:58;;;;;;;;;;;24.80;93.00;;;;;;5017799;28;20020;-68
2023/06/16 11:59:28;;;;;;;;;;;24.60;93.00;;;;;;5019136;28;20201;-66
2023/06/16 12:01:57;;;;;;;;;;;24.70;93.30;;;;;;5016959;28;20310;-68
2023/06/16 12:04:24;;;;;;;;;;;24.60;92.80;;;;;;5018024;28;19905;-68
2023/06/16 12:06:49;;;;;;;;;;;24.60;94.00;;;;;;5018229;28;19909;-67
2023/06/16 12:09:19;;;;;;;;;;;24.60;93.90;;;;;;5018721;28;19932;-66
2023/06/16 12:11:46;;;;;;;;;;;24.70;93.10;;;;;;5017902;28;19961;-68
2023/06/16 12:14:19;;;;;;;;;;;24.60;94.30;;;;;;5018323;28;19913;-67
2023/06/16 12:16:45;;;;;;;;;;;24.50;94.50;;;;;;5002639;28;19913;-68
2023/06/16 12:19:11;;;;;;;;;;;24.60;94.20;;;;;;5018463;28;19905;-65
2023/06/16 12:21:39;;;;;;;;;;;24.60;95.20;;;;;;5017622;28;19909;-77
2023/06/16 12:24:09;;;;;;;;;;;24.70;94.80;;;;;;5018364;28;19906;-67
2023/06/16 12:26:41;;;;;;;;;;;24.70;94.20;;;;;;5017497;28;20268;-66
2023/06/16 12:29:10;;;;;;;;;;;24.70;94.20;;;;;;5017743;28;19909;-70
2023/06/16 12:31:36;;;;;;;;;;;24.60;94.70;;;;;;5017616;28;19914;-68
2023/06/16 12:34:02;;;;;;;;;;;24.60;95.20;;;;;;5017778;28;19996;-68
2023/06/16 12:36:28;;;;;;;;;;;24.50;94.80;;;;;;5017467;28;19996;-66
2023/06/16 12:38:55;;;;;;;;;;;24.50;94.60;;;;;;5017218;28;19955;-68
2023/06/16 12:41:21;;;;;;;;;;;24.50;94.60;;;;;;5016503;28;19905;-66
2023/06/16 12:43:51;;;;;;;;;;;24.40;94.70;;;;;;5016640;28;19919;-66
2023/06/16 12:46:17;;;;;;;;;;;24.40;95.70;;;;;;5016449;28;20005;-66
2023/06/16 12:48:43;;;;;;;;;;;24.40;96.20;;;;;;5017782;28;20292;-67
2023/06/16 12:51:09;;;;;;;;;;;24.50;96.50;;;;;;5017245;28;19955;-66
2023/06/16 12:53:40;;;;;;;;;;;24.50;95.40;;;;;;5032546;28;19917;-66
2023/06/16 12:56:07;;;;;;;;;;;24.50;95.10;;;;;;5032633;28;19916;-66
2023/06/16 12:58:33;;;;;;;;;;;24.40;96.00;;;;;;5017445;28;19910;-68
2023/06/16 13:00:59;;;;;;;;;;;24.50;96.30;;;;;;5016313;28;19917;-68
2023/06/16 13:03:25;;;;;;;;;;;24.40;95.00;;;;;;5016930;28;19972;-66
2023/06/16 13:05:52;;;;;;;;;;;24.50;95.00;;;;;;5017549;28;20279;-66
2023/06/16 13:08:17;;;;;;;;;;;24.40;95.10;;;;;;5017209;28;19956;-69
2023/06/16 13:10:43;;;;;;;;;;;24.40;94.20;;;;;;5016733;28;19956;-67
2023/06/16 13:13:09;;;;;;;;;;;24.30;93.30;;;;;;5016603;28;19913;-68
2023/06/16 13:15:35;;;;;;;;;;;24.40;95.30;;;;;;5015875;28;19913;-69
2023/06/16 13:18:00;;;;;;;;;;;24.40;95.70;;;;;;5016632;28;20212;-67
2023/06/16 13:20:26;;;;;;;;;;;24.40;95.20;;;;;;5007413;28;19905;-71
2023/06/16 13:22:51;;;;;;;;;;;24.40;94.40;;;;;;5017140;28;20237;-67
2023/06/16 13:25:17;;;;;;;;;;;24.40;93.50;;;;;;5015922;28;19913;-68
2023/06/16 13:27:42;;;;;;;;;;;24.40;94.00;;;;;;5015967;28;19916;-67
2023/06/16 13:30:08;;;;;;;;;;;24.50;95.00;;;;;;5016857;28;20371;-67
2023/06/16 13:32:34;;;;;;;;;;;24.60;93.70;;;;;;5016824;28;19913;-66
2023/06/16 13:35:00;;;;;;;;;;;24.60;93.90;;;;;;5016561;28;19953;-67
2023/06/16 13:37:25;;;;;;;;;;;24.50;93.80;;;;;;5016518;28;20209;-68
2023/06/16 13:39:52;;;;;;;;;;;24.60;93.80;;;;;;5032346;28;19941;-68
2023/06/16 13:42:17;;;;;;;;;;;24.50;94.10;;;;;;5015556;28;19917;-66
2023/06/16 13:44:44;;;;;;;;;;;24.40;92.90;;;;;;5015534;28;19916;-68
2023/06/16 13:47:09;;;;;;;;;;;24.40;93.10;;;;;;5016057;28;19917;-67
2023/06/16 13:49:35;;;;;;;;;;;24.30;93.80;;;;;;5016853;28;19905;-68
2023/06/16 13:52:00;;;;;;;;;;;24.30;93.90;;;;;;5015513;28;19914;-67
2023/06/16 13:54:26;;;;;;;;;;;24.20;94.30;;;;;;5015711;28;19963;-80
2023/06/16 13:56:52;;;;;;;;;;;24.30;93.80;;;;;;5031872;28;19992;-66
2023/06/16 13:59:17;;;;;;;;;;;24.40;94.50;;;;;;5016945;28;20289;-67
2023/06/16 14:01:43;;;;;;;;;;;24.50;95.10;;;;;;5015782;28;19975;-68
2023/06/16 14:04:08;;;;;;;;;;;24.40;93.10;;;;;;5015746;28;20265;-67
2023/06/16 14:06:34;;;;;;;;;;;24.40;92.80;;;;;;5016210;28;19906;-66
2023/06/16 14:08:59;;;;;;;;;;;24.60;94.50;;;;;;5016743;28;19909;-66
2023/06/16 14:11:25;;;;;;;;;;;24.60;94.30;;;;;;5014797;28;20008;-67
2023/06/16 14:13:51;;;;;;;;;;;24.50;93.10;;;;;;5015869;28;19913;-66